sensor_id;sensor_type;location;lat;lon;timestamp;P1;durP1;ratioP1;P2;durP2;ratioP2
76593;SDS011;65482;50.240;14.302;2023-03-14T00:01:57;14.23;;;10.00;;
76593;SDS011;65482;50.240;14.302;2023-03-14T00:04:32;16.00;;;10.02;;
76593;SDS011;65482;50.240;14.302;2023-03-14T00:07:09;14.80;;;9.50;;
76593;SDS011;65482;50.240;14.302;2023-03-14T00:09:52;18.63;;;9.95;;
76593;SDS011;65482;50.240;14.302;2023-03-14T00:12:21;17.20;;;10.15;;
76593;SDS011;65482;50.240;14.302;2023-03-14T00:15:12;15.98;;;10.23;;
76593;SDS011;65482;50.240;14.302;2023-03-14T00:17:44;18.17;;;10.65;;
76593;SDS011;65482;50.240;14.302;2023-03-14T00:23:19;18.52;;;9.98;;
76593;SDS011;65482;50.240;14.302;2023-03-14T00:25:44;18.15;;;10.57;;
76593;SDS011;65482;50.240;14.302;2023-03-14T00:28:10;17.10;;;9.65;;
76593;SDS011;65482;50.240;14.302;2023-03-14T00:30:37;22.63;;;11.48;;
76593;SDS011;65482;50.240;14.302;2023-03-14T00:33:03;16.02;;;9.68;;
76593;SDS011;65482;50.240;14.302;2023-03-14T00:35:28;19.33;;;10.43;;
76593;SDS011;65482;50.240;14.302;2023-03-14T00:37:54;28.65;;;15.15;;
76593;SDS011;65482;50.240;14.302;2023-03-14T00:40:20;19.00;;;11.02;;
76593;SDS011;65482;50.240;14.302;2023-03-14T00:42:45;16.88;;;9.05;;
76593;SDS011;65482;50.240;14.302;2023-03-14T00:45:11;15.38;;;9.10;;
76593;SDS011;65482;50.240;14.302;2023-03-14T00:47:37;16.67;;;10.32;;
76593;SDS011;65482;50.240;14.302;2023-03-14T00:50:03;18.23;;;9.90;;
76593;SDS011;65482;50.240;14.302;2023-03-14T00:52:29;18.55;;;10.18;;
76593;SDS011;65482;50.240;14.302;2023-03-14T00:54:54;16.98;;;9.18;;
76593;SDS011;65482;50.240;14.302;2023-03-14T00:57:25;14.23;;;9.32;;
76593;SDS011;65482;50.240;14.302;2023-03-14T00:59:50;16.67;;;9.25;;
76593;SDS011;65482;50.240;14.302;2023-03-14T01:02:20;13.98;;;8.68;;
76593;SDS011;65482;50.240;14.302;2023-03-14T01:04:47;16.92;;;8.57;;
76593;SDS011;65482;50.240;14.302;2023-03-14T01:07:14;15.88;;;9.25;;
76593;SDS011;65482;50.240;14.302;2023-03-14T01:09:40;16.73;;;9.13;;
76593;SDS011;65482;50.240;14.302;2023-03-14T01:12:06;14.35;;;8.60;;
76593;SDS011;65482;50.240;14.302;2023-03-14T01:14:31;14.68;;;8.50;;
76593;SDS011;65482;50.240;14.302;2023-03-14T01:16:57;15.40;;;9.25;;
76593;SDS011;65482;50.240;14.302;2023-03-14T01:19:29;15.95;;;8.98;;
76593;SDS011;65482;50.240;14.302;2023-03-14T01:21:55;13.73;;;7.57;;
76593;SDS011;65482;50.240;14.302;2023-03-14T01:24:21;10.38;;;7.20;;
76593;SDS011;65482;50.240;14.302;2023-03-14T01:26:46;13.05;;;7.72;;
76593;SDS011;65482;50.240;14.302;2023-03-14T01:29:12;14.80;;;8.18;;
76593;SDS011;65482;50.240;14.302;2023-03-14T01:31:38;14.85;;;8.27;;
76593;SDS011;65482;50.240;14.302;2023-03-14T01:34:04;15.02;;;8.10;;
76593;SDS011;65482;50.240;14.302;2023-03-14T01:36:30;12.82;;;7.53;;
76593;SDS011;65482;50.240;14.302;2023-03-14T01:38:55;10.75;;;7.53;;
76593;SDS011;65482;50.240;14.302;2023-03-14T01:41:22;12.13;;;8.23;;
76593;SDS011;65482;50.240;14.302;2023-03-14T01:43:50;14.15;;;8.10;;
76593;SDS011;65482;50.240;14.302;2023-03-14T01:49:04;13.38;;;7.90;;
76593;SDS011;65482;50.240;14.302;2023-03-14T01:54:21;15.32;;;8.80;;
76593;SDS011;65482;50.240;14.302;2023-03-14T01:56:53;15.30;;;8.10;;
76593;SDS011;65482;50.240;14.302;2023-03-14T01:59:22;15.20;;;8.13;;
76593;SDS011;65482;50.240;14.302;2023-03-14T02:01:49;13.45;;;8.13;;
76593;SDS011;65482;50.240;14.302;2023-03-14T02:04:16;16.42;;;7.82;;
76593;SDS011;65482;50.240;14.302;2023-03-14T02:06:55;15.10;;;9.05;;
76593;SDS011;65482;50.240;14.302;2023-03-14T02:09:25;12.15;;;7.82;;
76593;SDS011;65482;50.240;14.302;2023-03-14T02:11:52;12.60;;;7.85;;
76593;SDS011;65482;50.240;14.302;2023-03-14T02:14:24;14.88;;;7.88;;
76593;SDS011;65482;50.240;14.302;2023-03-14T02:16:54;11.68;;;8.38;;
76593;SDS011;65482;50.240;14.302;2023-03-14T02:19:22;13.98;;;8.50;;
76593;SDS011;65482;50.240;14.302;2023-03-14T02:22:11;14.38;;;8.20;;
76593;SDS011;65482;50.240;14.302;2023-03-14T02:24:43;17.02;;;8.18;;
76593;SDS011;65482;50.240;14.302;2023-03-14T02:27:13;12.60;;;8.32;;
76593;SDS011;65482;50.240;14.302;2023-03-14T02:29:47;17.10;;;7.85;;
76593;SDS011;65482;50.240;14.302;2023-03-14T02:32:16;13.63;;;8.30;;
76593;SDS011;65482;50.240;14.302;2023-03-14T02:34:45;12.80;;;7.40;;
76593;SDS011;65482;50.240;14.302;2023-03-14T02:37:13;13.98;;;8.48;;
76593;SDS011;65482;50.240;14.302;2023-03-14T02:39:42;16.77;;;8.32;;
76593;SDS011;65482;50.240;14.302;2023-03-14T02:42:11;14.10;;;8.55;;
76593;SDS011;65482;50.240;14.302;2023-03-14T02:44:51;11.30;;;7.72;;
76593;SDS011;65482;50.240;14.302;2023-03-14T02:47:29;13.63;;;7.70;;
76593;SDS011;65482;50.240;14.302;2023-03-14T02:50:06;13.68;;;7.55;;
76593;SDS011;65482;50.240;14.302;2023-03-14T02:52:35;17.25;;;8.50;;
76593;SDS011;65482;50.240;14.302;2023-03-14T02:55:01;13.30;;;8.85;;
76593;SDS011;65482;50.240;14.302;2023-03-14T02:57:27;15.00;;;8.43;;
76593;SDS011;65482;50.240;14.302;2023-03-14T02:59:53;13.30;;;8.02;;
76593;SDS011;65482;50.240;14.302;2023-03-14T03:02:19;12.65;;;7.80;;
76593;SDS011;65482;50.240;14.302;2023-03-14T03:04:44;15.02;;;8.40;;
76593;SDS011;65482;50.240;14.302;2023-03-14T03:07:10;12.82;;;8.00;;
76593;SDS011;65482;50.240;14.302;2023-03-14T03:09:35;14.77;;;8.57;;
76593;SDS011;65482;50.240;14.302;2023-03-14T03:12:01;16.67;;;8.13;;
76593;SDS011;65482;50.240;14.302;2023-03-14T03:14:27;17.00;;;9.02;;
76593;SDS011;65482;50.240;14.302;2023-03-14T03:16:53;15.95;;;8.75;;
76593;SDS011;65482;50.240;14.302;2023-03-14T03:19:18;15.93;;;8.68;;
76593;SDS011;65482;50.240;14.302;2023-03-14T03:21:44;14.75;;;8.93;;
76593;SDS011;65482;50.240;14.302;2023-03-14T03:24:10;15.80;;;8.80;;
76593;SDS011;65482;50.240;14.302;2023-03-14T03:26:36;17.23;;;8.73;;
76593;SDS011;65482;50.240;14.302;2023-03-14T03:29:02;14.02;;;8.65;;
76593;SDS011;65482;50.240;14.302;2023-03-14T03:31:28;15.15;;;8.38;;
76593;SDS011;65482;50.240;14.302;2023-03-14T03:33:54;12.85;;;8.15;;
76593;SDS011;65482;50.240;14.302;2023-03-14T03:36:20;15.93;;;9.57;;
76593;SDS011;65482;50.240;14.302;2023-03-14T03:38:47;14.75;;;8.77;;
76593;SDS011;65482;50.240;14.302;2023-03-14T03:41:13;16.00;;;8.93;;
76593;SDS011;65482;50.240;14.302;2023-03-14T03:43:39;15.30;;;9.25;;
76593;SDS011;65482;50.240;14.302;2023-03-14T03:46:05;18.52;;;9.70;;
76593;SDS011;65482;50.240;14.302;2023-03-14T03:48:31;14.88;;;8.38;;
76593;SDS011;65482;50.240;14.302;2023-03-14T03:50:58;13.88;;;8.10;;
76593;SDS011;65482;50.240;14.302;2023-03-14T03:53:23;15.27;;;8.93;;
76593;SDS011;65482;50.240;14.302;2023-03-14T03:55:49;14.32;;;9.10;;
76593;SDS011;65482;50.240;14.302;2023-03-14T03:58:15;14.38;;;9.02;;
76593;SDS011;65482;50.240;14.302;2023-03-14T04:00:40;15.18;;;9.15;;
76593;SDS011;65482;50.240;14.302;2023-03-14T04:03:06;13.90;;;8.63;;
76593;SDS011;65482;50.240;14.302;2023-03-14T04:05:32;18.30;;;10.07;;
76593;SDS011;65482;50.240;14.302;2023-03-14T04:07:59;14.95;;;9.15;;
76593;SDS011;65482;50.240;14.302;2023-03-14T04:10:25;16.65;;;9.02;;
76593;SDS011;65482;50.240;14.302;2023-03-14T04:12:51;14.82;;;9.32;;
76593;SDS011;65482;50.240;14.302;2023-03-14T04:15:18;16.02;;;9.48;;
76593;SDS011;65482;50.240;14.302;2023-03-14T04:17:43;16.77;;;9.63;;
76593;SDS011;65482;50.240;14.302;2023-03-14T04:20:09;15.63;;;9.20;;
76593;SDS011;65482;50.240;14.302;2023-03-14T04:22:38;16.23;;;9.65;;
76593;SDS011;65482;50.240;14.302;2023-03-14T04:25:05;18.60;;;9.93;;
76593;SDS011;65482;50.240;14.302;2023-03-14T04:27:31;15.02;;;9.35;;
76593;SDS011;65482;50.240;14.302;2023-03-14T04:29:57;13.43;;;8.98;;
76593;SDS011;65482;50.240;14.302;2023-03-14T04:32:22;16.98;;;9.43;;
76593;SDS011;65482;50.240;14.302;2023-03-14T04:34:48;18.15;;;10.48;;
76593;SDS011;65482;50.240;14.302;2023-03-14T04:37:14;18.42;;;9.45;;
76593;SDS011;65482;50.240;14.302;2023-03-14T04:39:40;16.73;;;9.57;;
76593;SDS011;65482;50.240;14.302;2023-03-14T04:42:06;15.75;;;9.18;;
76593;SDS011;65482;50.240;14.302;2023-03-14T04:44:31;15.45;;;9.82;;
76593;SDS011;65482;50.240;14.302;2023-03-14T04:46:57;13.55;;;9.73;;
76593;SDS011;65482;50.240;14.302;2023-03-14T04:49:23;17.88;;;10.07;;
76593;SDS011;65482;50.240;14.302;2023-03-14T04:51:49;17.42;;;9.57;;
76593;SDS011;65482;50.240;14.302;2023-03-14T04:54:17;15.65;;;10.18;;
76593;SDS011;65482;50.240;14.302;2023-03-14T04:56:42;14.20;;;8.45;;
76593;SDS011;65482;50.240;14.302;2023-03-14T04:59:08;13.48;;;7.35;;
76593;SDS011;65482;50.240;14.302;2023-03-14T05:01:34;14.00;;;7.63;;
76593;SDS011;65482;50.240;14.302;2023-03-14T05:04:00;11.05;;;7.13;;
76593;SDS011;65482;50.240;14.302;2023-03-14T05:06:26;12.48;;;6.65;;
76593;SDS011;65482;50.240;14.302;2023-03-14T05:08:52;9.90;;;5.65;;
76593;SDS011;65482;50.240;14.302;2023-03-14T05:11:18;7.20;;;4.90;;
76593;SDS011;65482;50.240;14.302;2023-03-14T05:13:44;5.47;;;3.55;;
76593;SDS011;65482;50.240;14.302;2023-03-14T05:16:10;3.80;;;2.13;;
76593;SDS011;65482;50.240;14.302;2023-03-14T05:18:36;2.90;;;1.70;;
76593;SDS011;65482;50.240;14.302;2023-03-14T05:21:03;3.20;;;1.55;;
76593;SDS011;65482;50.240;14.302;2023-03-14T05:23:29;2.15;;;1.40;;
76593;SDS011;65482;50.240;14.302;2023-03-14T05:25:55;1.35;;;1.00;;
76593;SDS011;65482;50.240;14.302;2023-03-14T05:28:22;2.05;;;1.15;;
76593;SDS011;65482;50.240;14.302;2023-03-14T05:30:47;2.47;;;1.40;;
76593;SDS011;65482;50.240;14.302;2023-03-14T05:33:14;2.42;;;1.52;;
76593;SDS011;65482;50.240;14.302;2023-03-14T05:35:39;3.00;;;1.52;;
76593;SDS011;65482;50.240;14.302;2023-03-14T05:38:07;1.60;;;1.20;;
76593;SDS011;65482;50.240;14.302;2023-03-14T05:40:32;2.10;;;1.25;;
76593;SDS011;65482;50.240;14.302;2023-03-14T05:42:59;1.90;;;1.13;;
76593;SDS011;65482;50.240;14.302;2023-03-14T05:45:25;0.90;;;0.80;;
76593;SDS011;65482;50.240;14.302;2023-03-14T05:47:51;2.00;;;1.10;;
76593;SDS011;65482;50.240;14.302;2023-03-14T05:50:17;1.40;;;0.93;;
76593;SDS011;65482;50.240;14.302;2023-03-14T05:52:43;1.90;;;1.10;;
76593;SDS011;65482;50.240;14.302;2023-03-14T05:55:13;1.90;;;0.98;;
76593;SDS011;65482;50.240;14.302;2023-03-14T05:57:45;1.20;;;0.90;;
76593;SDS011;65482;50.240;14.302;2023-03-14T06:00:22;1.02;;;0.80;;
76593;SDS011;65482;50.240;14.302;2023-03-14T06:02:48;0.95;;;0.80;;
76593;SDS011;65482;50.240;14.302;2023-03-14T06:05:18;0.80;;;0.68;;
76593;SDS011;65482;50.240;14.302;2023-03-14T06:07:55;1.80;;;0.77;;
76593;SDS011;65482;50.240;14.302;2023-03-14T06:10:24;2.45;;;0.80;;
76593;SDS011;65482;50.240;14.302;2023-03-14T06:13:17;2.00;;;0.77;;
76593;SDS011;65482;50.240;14.302;2023-03-14T06:49:30;1.10;;;0.75;;
76593;SDS011;65482;50.240;14.302;2023-03-14T07:05:52;2.00;;;0.90;;
76593;SDS011;65482;50.240;14.302;2023-03-14T07:31:53;2.83;;;1.00;;
76593;SDS011;65482;50.240;14.302;2023-03-14T07:39:17;3.35;;;1.20;;
76593;SDS011;65482;50.240;14.302;2023-03-14T07:50:05;2.53;;;1.17;;
76593;SDS011;65482;50.240;14.302;2023-03-14T08:04:09;1.23;;;0.90;;
76593;SDS011;65482;50.240;14.302;2023-03-14T08:26:50;2.17;;;1.17;;
76593;SDS011;65482;50.240;14.302;2023-03-14T09:59:30;4.43;;;1.37;;
76593;SDS011;65482;50.240;14.302;2023-03-14T10:31:17;3.88;;;0.90;;
76593;SDS011;65482;50.240;14.302;2023-03-14T10:35:03;3.22;;;1.13;;
76593;SDS011;65482;50.240;14.302;2023-03-14T10:37:36;3.28;;;1.20;;
76593;SDS011;65482;50.240;14.302;2023-03-14T10:40:35;2.50;;;1.00;;
76593;SDS011;65482;50.240;14.302;2023-03-14T10:43:17;3.45;;;1.27;;
76593;SDS011;65482;50.240;14.302;2023-03-14T11:36:12;2.03;;;1.00;;
76593;SDS011;65482;50.240;14.302;2023-03-14T11:39:54;2.15;;;0.90;;
76593;SDS011;65482;50.240;14.302;2023-03-14T11:51:20;4.05;;;1.52;;
76593;SDS011;65482;50.240;14.302;2023-03-14T13:00:38;4.40;;;1.23;;
76593;SDS011;65482;50.240;14.302;2023-03-14T13:29:23;2.60;;;0.90;;
76593;SDS011;65482;50.240;14.302;2023-03-14T13:36:35;0.60;;;0.60;;
76593;SDS011;65482;50.240;14.302;2023-03-14T13:46:42;3.92;;;1.10;;
76593;SDS011;65482;50.240;14.302;2023-03-14T13:49:26;1.90;;;1.17;;
76593;SDS011;65482;50.240;14.302;2023-03-14T13:52:03;4.20;;;1.40;;
76593;SDS011;65482;50.240;14.302;2023-03-14T13:57:53;2.83;;;1.20;;
76593;SDS011;65482;50.240;14.302;2023-03-14T14:00:25;6.88;;;1.50;;
76593;SDS011;65482;50.240;14.302;2023-03-14T14:03:20;3.55;;;1.25;;
76593;SDS011;65482;50.240;14.302;2023-03-14T14:06:46;2.10;;;1.27;;
76593;SDS011;65482;50.240;14.302;2023-03-14T14:09:53;2.60;;;1.42;;
76593;SDS011;65482;50.240;14.302;2023-03-14T14:16:25;4.40;;;1.00;;
76593;SDS011;65482;50.240;14.302;2023-03-14T14:20:20;2.40;;;1.00;;
76593;SDS011;65482;50.240;14.302;2023-03-14T14:24:17;6.40;;;1.50;;
76593;SDS011;65482;50.240;14.302;2023-03-14T14:26:53;2.85;;;1.00;;
76593;SDS011;65482;50.240;14.302;2023-03-14T14:44:18;1.23;;;0.70;;
76593;SDS011;65482;50.240;14.302;2023-03-14T15:02:36;1.50;;;0.75;;
76593;SDS011;65482;50.240;14.302;2023-03-14T15:05:37;1.60;;;0.80;;
76593;SDS011;65482;50.240;14.302;2023-03-14T15:08:24;1.15;;;0.80;;
76593;SDS011;65482;50.240;14.302;2023-03-14T15:11:10;1.88;;;1.00;;
76593;SDS011;65482;50.240;14.302;2023-03-14T15:14:13;1.95;;;0.80;;
76593;SDS011;65482;50.240;14.302;2023-03-14T15:17:12;10.07;;;1.13;;
76593;SDS011;65482;50.240;14.302;2023-03-14T15:19:55;2.25;;;0.88;;
76593;SDS011;65482;50.240;14.302;2023-03-14T15:22:23;3.10;;;1.50;;
76593;SDS011;65482;50.240;14.302;2023-03-14T15:24:50;4.00;;;1.35;;
76593;SDS011;65482;50.240;14.302;2023-03-14T15:27:17;3.08;;;1.17;;
76593;SDS011;65482;50.240;14.302;2023-03-14T15:29:43;6.28;;;1.50;;
76593;SDS011;65482;50.240;14.302;2023-03-14T15:32:11;3.58;;;1.15;;
76593;SDS011;65482;50.240;14.302;2023-03-14T15:34:37;4.18;;;1.52;;
76593;SDS011;65482;50.240;14.302;2023-03-14T15:37:03;4.45;;;1.15;;
76593;SDS011;65482;50.240;14.302;2023-03-14T15:39:36;5.35;;;1.58;;
76593;SDS011;65482;50.240;14.302;2023-03-14T15:48:32;1.90;;;1.00;;
76593;SDS011;65482;50.240;14.302;2023-03-14T15:50:58;3.97;;;1.30;;
76593;SDS011;65482;50.240;14.302;2023-03-14T15:53:23;4.30;;;1.27;;
76593;SDS011;65482;50.240;14.302;2023-03-14T15:55:49;2.40;;;1.00;;
76593;SDS011;65482;50.240;14.302;2023-03-14T15:58:21;1.42;;;1.10;;
76593;SDS011;65482;50.240;14.302;2023-03-14T16:01:23;3.72;;;1.25;;
76593;SDS011;65482;50.240;14.302;2023-03-14T16:04:10;1.90;;;0.98;;
76593;SDS011;65482;50.240;14.302;2023-03-14T16:07:47;1.52;;;0.88;;
76593;SDS011;65482;50.240;14.302;2023-03-14T16:11:11;1.73;;;0.70;;
76593;SDS011;65482;50.240;14.302;2023-03-14T16:18:11;1.70;;;1.10;;
76593;SDS011;65482;50.240;14.302;2023-03-14T16:21:01;2.25;;;1.00;;
76593;SDS011;65482;50.240;14.302;2023-03-14T16:24:19;2.42;;;1.00;;
76593;SDS011;65482;50.240;14.302;2023-03-14T16:27:35;2.42;;;1.20;;
76593;SDS011;65482;50.240;14.302;2023-03-14T16:30:37;1.98;;;1.13;;
76593;SDS011;65482;50.240;14.302;2023-03-14T16:34:10;2.78;;;1.60;;
76593;SDS011;65482;50.240;14.302;2023-03-14T16:37:05;8.57;;;3.85;;
76593;SDS011;65482;50.240;14.302;2023-03-14T16:39:54;4.35;;;2.30;;
76593;SDS011;65482;50.240;14.302;2023-03-14T16:42:57;2.38;;;1.48;;
76593;SDS011;65482;50.240;14.302;2023-03-14T16:46:29;3.05;;;1.60;;
76593;SDS011;65482;50.240;14.302;2023-03-14T16:49:28;3.33;;;1.92;;
76593;SDS011;65482;50.240;14.302;2023-03-14T16:52:49;8.60;;;2.05;;
76593;SDS011;65482;50.240;14.302;2023-03-14T16:55:58;3.67;;;2.00;;
76593;SDS011;65482;50.240;14.302;2023-03-14T16:58:40;4.78;;;2.20;;
76593;SDS011;65482;50.240;14.302;2023-03-14T17:05:16;3.65;;;1.58;;
76593;SDS011;65482;50.240;14.302;2023-03-14T17:08:14;1.88;;;1.10;;
76593;SDS011;65482;50.240;14.302;2023-03-14T17:11:04;4.57;;;2.00;;
76593;SDS011;65482;50.240;14.302;2023-03-14T17:13:47;3.90;;;1.80;;
76593;SDS011;65482;50.240;14.302;2023-03-14T17:16:34;5.57;;;1.80;;
76593;SDS011;65482;50.240;14.302;2023-03-14T17:19:27;2.55;;;1.30;;
76593;SDS011;65482;50.240;14.302;2023-03-14T17:22:20;5.25;;;1.38;;
76593;SDS011;65482;50.240;14.302;2023-03-14T17:25:02;2.78;;;1.45;;
76593;SDS011;65482;50.240;14.302;2023-03-14T17:27:34;2.22;;;1.20;;
76593;SDS011;65482;50.240;14.302;2023-03-14T17:30:08;2.72;;;1.05;;
76593;SDS011;65482;50.240;14.302;2023-03-14T17:32:40;1.50;;;1.20;;
76593;SDS011;65482;50.240;14.302;2023-03-14T17:38:20;1.98;;;0.90;;
76593;SDS011;65482;50.240;14.302;2023-03-14T17:41:18;1.83;;;1.00;;
76593;SDS011;65482;50.240;14.302;2023-03-14T17:44:12;2.67;;;1.42;;
76593;SDS011;65482;50.240;14.302;2023-03-14T17:46:44;3.03;;;1.13;;
76593;SDS011;65482;50.240;14.302;2023-03-14T17:49:26;3.40;;;1.00;;
76593;SDS011;65482;50.240;14.302;2023-03-14T17:52:16;2.22;;;1.25;;
76593;SDS011;65482;50.240;14.302;2023-03-14T17:54:53;2.72;;;1.15;;
76593;SDS011;65482;50.240;14.302;2023-03-14T17:57:50;4.00;;;1.38;;
76593;SDS011;65482;50.240;14.302;2023-03-14T18:00:54;3.80;;;1.50;;
76593;SDS011;65482;50.240;14.302;2023-03-14T18:04:02;2.42;;;1.20;;
76593;SDS011;65482;50.240;14.302;2023-03-14T18:06:55;3.17;;;1.60;;
76593;SDS011;65482;50.240;14.302;2023-03-14T18:09:34;2.13;;;1.10;;
76593;SDS011;65482;50.240;14.302;2023-03-14T18:12:36;3.28;;;1.00;;
76593;SDS011;65482;50.240;14.302;2023-03-14T18:15:35;1.40;;;0.60;;
76593;SDS011;65482;50.240;14.302;2023-03-14T18:18:50;0.40;;;0.40;;
76593;SDS011;65482;50.240;14.302;2023-03-14T18:21:51;2.22;;;0.93;;
76593;SDS011;65482;50.240;14.302;2023-03-14T18:24:18;3.58;;;1.30;;
76593;SDS011;65482;50.240;14.302;2023-03-14T18:26:45;2.08;;;0.93;;
76593;SDS011;65482;50.240;14.302;2023-03-14T18:29:12;1.98;;;0.88;;
76593;SDS011;65482;50.240;14.302;2023-03-14T18:31:58;2.00;;;1.10;;
76593;SDS011;65482;50.240;14.302;2023-03-14T18:34:52;1.88;;;1.20;;
76593;SDS011;65482;50.240;14.302;2023-03-14T18:37:34;1.58;;;1.10;;
76593;SDS011;65482;50.240;14.302;2023-03-14T18:40:24;2.88;;;1.25;;
76593;SDS011;65482;50.240;14.302;2023-03-14T18:43:12;2.13;;;0.95;;
76593;SDS011;65482;50.240;14.302;2023-03-14T18:46:07;1.50;;;0.88;;
76593;SDS011;65482;50.240;14.302;2023-03-14T18:48:55;2.33;;;1.50;;
76593;SDS011;65482;50.240;14.302;2023-03-14T18:51:36;0.93;;;0.60;;
76593;SDS011;65482;50.240;14.302;2023-03-14T18:54:26;1.08;;;0.57;;
76593;SDS011;65482;50.240;14.302;2023-03-14T18:57:14;0.40;;;0.40;;
76593;SDS011;65482;50.240;14.302;2023-03-14T18:59:53;0.80;;;0.60;;
76593;SDS011;65482;50.240;14.302;2023-03-14T19:02:35;0.95;;;0.60;;
76593;SDS011;65482;50.240;14.302;2023-03-14T19:05:03;1.60;;;0.95;;
76593;SDS011;65482;50.240;14.302;2023-03-14T19:07:46;2.70;;;0.95;;
76593;SDS011;65482;50.240;14.302;2023-03-14T19:10:27;2.75;;;1.10;;
76593;SDS011;65482;50.240;14.302;2023-03-14T19:13:02;1.33;;;0.80;;
76593;SDS011;65482;50.240;14.302;2023-03-14T19:15:36;2.05;;;1.10;;
76593;SDS011;65482;50.240;14.302;2023-03-14T19:18:17;1.30;;;0.80;;
76593;SDS011;65482;50.240;14.302;2023-03-14T19:21:00;1.40;;;0.90;;
76593;SDS011;65482;50.240;14.302;2023-03-14T19:23:51;0.77;;;0.70;;
76593;SDS011;65482;50.240;14.302;2023-03-14T19:26:23;1.10;;;0.70;;
76593;SDS011;65482;50.240;14.302;2023-03-14T19:29:01;1.13;;;0.90;;
76593;SDS011;65482;50.240;14.302;2023-03-14T19:31:45;1.50;;;0.90;;
76593;SDS011;65482;50.240;14.302;2023-03-14T19:34:39;1.55;;;1.10;;
76593;SDS011;65482;50.240;14.302;2023-03-14T19:37:42;1.52;;;1.00;;
76593;SDS011;65482;50.240;14.302;2023-03-14T19:40:20;1.58;;;0.93;;
76593;SDS011;65482;50.240;14.302;2023-03-14T19:42:54;1.30;;;0.90;;
76593;SDS011;65482;50.240;14.302;2023-03-14T19:45:33;1.25;;;0.82;;
76593;SDS011;65482;50.240;14.302;2023-03-14T19:48:14;0.90;;;0.70;;
76593;SDS011;65482;50.240;14.302;2023-03-14T19:51:04;1.13;;;0.80;;
76593;SDS011;65482;50.240;14.302;2023-03-14T19:53:46;0.85;;;0.80;;
76593;SDS011;65482;50.240;14.302;2023-03-14T19:56:35;1.98;;;0.80;;
76593;SDS011;65482;50.240;14.302;2023-03-14T19:59:33;2.22;;;0.98;;
76593;SDS011;65482;50.240;14.302;2023-03-14T20:02:54;1.52;;;0.90;;
76593;SDS011;65482;50.240;14.302;2023-03-14T20:05:46;0.75;;;0.65;;
76593;SDS011;65482;50.240;14.302;2023-03-14T20:08:23;1.33;;;0.70;;
76593;SDS011;65482;50.240;14.302;2023-03-14T20:10:49;0.93;;;0.70;;
76593;SDS011;65482;50.240;14.302;2023-03-14T20:13:20;2.45;;;0.80;;
76593;SDS011;65482;50.240;14.302;2023-03-14T20:16:01;2.70;;;0.80;;
76593;SDS011;65482;50.240;14.302;2023-03-14T20:18:41;1.60;;;0.80;;
76593;SDS011;65482;50.240;14.302;2023-03-14T20:22:00;3.53;;;0.80;;
76593;SDS011;65482;50.240;14.302;2023-03-14T20:24:43;1.38;;;0.80;;
76593;SDS011;65482;50.240;14.302;2023-03-14T20:27:18;2.28;;;0.90;;
76593;SDS011;65482;50.240;14.302;2023-03-14T20:30:05;1.77;;;1.02;;
76593;SDS011;65482;50.240;14.302;2023-03-14T20:32:47;2.72;;;1.10;;
76593;SDS011;65482;50.240;14.302;2023-03-14T20:35:21;2.78;;;1.17;;
76593;SDS011;65482;50.240;14.302;2023-03-14T20:38:02;4.85;;;1.40;;
76593;SDS011;65482;50.240;14.302;2023-03-14T20:40:38;3.20;;;1.08;;
76593;SDS011;65482;50.240;14.302;2023-03-14T20:43:13;2.17;;;1.10;;
76593;SDS011;65482;50.240;14.302;2023-03-14T20:45:57;2.55;;;1.08;;
76593;SDS011;65482;50.240;14.302;2023-03-14T20:48:52;3.13;;;1.38;;
76593;SDS011;65482;50.240;14.302;2023-03-14T20:51:44;2.38;;;1.15;;
76593;SDS011;65482;50.240;14.302;2023-03-14T20:54:32;4.88;;;1.20;;
76593;SDS011;65482;50.240;14.302;2023-03-14T20:57:24;6.88;;;1.98;;
76593;SDS011;65482;50.240;14.302;2023-03-14T21:00:11;3.60;;;1.45;;
76593;SDS011;65482;50.240;14.302;2023-03-14T21:02:48;6.05;;;1.50;;
76593;SDS011;65482;50.240;14.302;2023-03-14T21:05:24;4.70;;;1.60;;
76593;SDS011;65482;50.240;14.302;2023-03-14T21:08:21;3.97;;;1.60;;
76593;SDS011;65482;50.240;14.302;2023-03-14T21:11:09;4.88;;;1.98;;
76593;SDS011;65482;50.240;14.302;2023-03-14T21:13:40;8.90;;;3.30;;
76593;SDS011;65482;50.240;14.302;2023-03-14T21:16:29;15.27;;;3.60;;
76593;SDS011;65482;50.240;14.302;2023-03-14T21:19:06;6.47;;;2.63;;
76593;SDS011;65482;50.240;14.302;2023-03-14T21:24:24;6.53;;;1.80;;
76593;SDS011;65482;50.240;14.302;2023-03-14T21:27:06;3.58;;;1.58;;
76593;SDS011;65482;50.240;14.302;2023-03-14T21:29:50;8.65;;;2.20;;
76593;SDS011;65482;50.240;14.302;2023-03-14T21:35:19;7.93;;;2.20;;
76593;SDS011;65482;50.240;14.302;2023-03-14T21:38:05;4.80;;;1.90;;
76593;SDS011;65482;50.240;14.302;2023-03-14T21:40:57;6.22;;;2.10;;
76593;SDS011;65482;50.240;14.302;2023-03-14T21:43:39;5.88;;;2.13;;
76593;SDS011;65482;50.240;14.302;2023-03-14T21:46:14;7.78;;;2.15;;
76593;SDS011;65482;50.240;14.302;2023-03-14T21:49:08;11.32;;;2.55;;
76593;SDS011;65482;50.240;14.302;2023-03-14T21:51:42;9.20;;;2.47;;
76593;SDS011;65482;50.240;14.302;2023-03-14T21:54:20;9.95;;;3.30;;
76593;SDS011;65482;50.240;14.302;2023-03-14T21:56:52;7.78;;;2.95;;
76593;SDS011;65482;50.240;14.302;2023-03-14T21:59:27;10.82;;;3.17;;
76593;SDS011;65482;50.240;14.302;2023-03-14T22:02:04;6.05;;;1.98;;
76593;SDS011;65482;50.240;14.302;2023-03-14T22:04:35;10.02;;;2.80;;
76593;SDS011;65482;50.240;14.302;2023-03-14T22:07:11;5.75;;;2.90;;
76593;SDS011;65482;50.240;14.302;2023-03-14T22:09:46;3.90;;;2.10;;
76593;SDS011;65482;50.240;14.302;2023-03-14T22:12:24;7.45;;;3.00;;
76593;SDS011;65482;50.240;14.302;2023-03-14T22:15:09;5.63;;;2.25;;
76593;SDS011;65482;50.240;14.302;2023-03-14T22:17:40;8.85;;;2.20;;
76593;SDS011;65482;50.240;14.302;2023-03-14T22:20:33;5.30;;;2.10;;
76593;SDS011;65482;50.240;14.302;2023-03-14T22:23:15;8.98;;;2.20;;
76593;SDS011;65482;50.240;14.302;2023-03-14T22:25:46;11.60;;;2.47;;
76593;SDS011;65482;50.240;14.302;2023-03-14T22:28:19;6.57;;;1.77;;
76593;SDS011;65482;50.240;14.302;2023-03-14T22:30:55;8.98;;;2.20;;
76593;SDS011;65482;50.240;14.302;2023-03-14T22:33:36;7.50;;;1.85;;
76593;SDS011;65482;50.240;14.302;2023-03-14T22:39:11;8.63;;;2.15;;
76593;SDS011;65482;50.240;14.302;2023-03-14T22:41:50;6.10;;;2.05;;
76593;SDS011;65482;50.240;14.302;2023-03-14T22:44:22;10.88;;;2.03;;
76593;SDS011;65482;50.240;14.302;2023-03-14T22:47:12;6.82;;;1.95;;
76593;SDS011;65482;50.240;14.302;2023-03-14T22:50:10;9.68;;;2.30;;
76593;SDS011;65482;50.240;14.302;2023-03-14T22:52:43;11.77;;;2.50;;
76593;SDS011;65482;50.240;14.302;2023-03-14T22:55:23;8.80;;;2.08;;
76593;SDS011;65482;50.240;14.302;2023-03-14T22:58:08;11.10;;;2.28;;
76593;SDS011;65482;50.240;14.302;2023-03-14T23:00:47;7.93;;;2.00;;
76593;SDS011;65482;50.240;14.302;2023-03-14T23:03:26;6.65;;;2.20;;
76593;SDS011;65482;50.240;14.302;2023-03-14T23:06:02;5.75;;;1.90;;
76593;SDS011;65482;50.240;14.302;2023-03-14T23:08:47;8.07;;;2.30;;
76593;SDS011;65482;50.240;14.302;2023-03-14T23:11:19;6.50;;;2.80;;
76593;SDS011;65482;50.240;14.302;2023-03-14T23:13:53;7.68;;;2.22;;
76593;SDS011;65482;50.240;14.302;2023-03-14T23:16:30;10.45;;;2.80;;
76593;SDS011;65482;50.240;14.302;2023-03-14T23:19:03;7.72;;;2.03;;
76593;SDS011;65482;50.240;14.302;2023-03-14T23:21:35;11.88;;;2.60;;
76593;SDS011;65482;50.240;14.302;2023-03-14T23:24:09;7.30;;;2.13;;